sensor_id;sensor_type;location;lat;lon;timestamp;P1;durP1;ratioP1;P2;durP2;ratioP2
2476;SDS011;1249;51.270;6.756;2023-07-08T00:02:07;3.27;;;2.87;;
2476;SDS011;1249;51.270;6.756;2023-07-08T00:04:33;5.27;;;3.50;;
2476;SDS011;1249;51.270;6.756;2023-07-08T00:06:59;4.07;;;3.30;;
2476;SDS011;1249;51.270;6.756;2023-07-08T00:09:24;4.20;;;3.23;;
2476;SDS011;1249;51.270;6.756;2023-07-08T00:11:50;3.20;;;3.00;;
2476;SDS011;1249;51.270;6.756;2023-07-08T00:14:16;3.30;;;2.83;;
2476;SDS011;1249;51.270;6.756;2023-07-08T00:16:42;3.70;;;3.40;;
2476;SDS011;1249;51.270;6.756;2023-07-08T00:19:08;3.57;;;3.37;;
2476;SDS011;1249;51.270;6.756;2023-07-08T00:21:35;3.40;;;3.10;;
2476;SDS011;1249;51.270;6.756;2023-07-08T00:24:00;3.13;;;2.83;;
2476;SDS011;1249;51.270;6.756;2023-07-08T00:26:27;3.93;;;3.50;;
2476;SDS011;1249;51.270;6.756;2023-07-08T00:28:55;3.83;;;3.53;;
2476;SDS011;1249;51.270;6.756;2023-07-08T00:31:21;3.47;;;3.10;;
2476;SDS011;1249;51.270;6.756;2023-07-08T00:33:53;3.13;;;2.87;;
2476;SDS011;1249;51.270;6.756;2023-07-08T00:36:23;3.23;;;3.03;;
2476;SDS011;1249;51.270;6.756;2023-07-08T00:38:50;3.53;;;3.10;;
2476;SDS011;1249;51.270;6.756;2023-07-08T00:41:37;7.93;;;3.20;;
2476;SDS011;1249;51.270;6.756;2023-07-08T00:44:07;4.87;;;3.07;;
2476;SDS011;1249;51.270;6.756;2023-07-08T00:46:58;3.80;;;3.03;;
2476;SDS011;1249;51.270;6.756;2023-07-08T00:49:34;3.23;;;2.93;;
2476;SDS011;1249;51.270;6.756;2023-07-08T00:52:16;3.20;;;2.90;;
2476;SDS011;1249;51.270;6.756;2023-07-08T00:54:48;4.17;;;2.87;;
2476;SDS011;1249;51.270;6.756;2023-07-08T00:57:15;4.10;;;3.40;;
2476;SDS011;1249;51.270;6.756;2023-07-08T00:59:44;7.47;;;3.50;;
2476;SDS011;1249;51.270;6.756;2023-07-08T01:02:17;3.63;;;3.13;;
2476;SDS011;1249;51.270;6.756;2023-07-08T01:04:56;5.73;;;3.20;;
2476;SDS011;1249;51.270;6.756;2023-07-08T01:07:27;7.10;;;2.80;;
2476;SDS011;1249;51.270;6.756;2023-07-08T01:10:37;3.83;;;3.00;;
2476;SDS011;1249;51.270;6.756;2023-07-08T01:12:49;3.60;;;3.00;;
2476;SDS011;1249;51.270;6.756;2023-07-08T01:15:18;5.20;;;3.00;;
2476;SDS011;1249;51.270;6.756;2023-07-08T01:17:47;6.53;;;4.27;;
2476;SDS011;1249;51.270;6.756;2023-07-08T01:20:15;3.20;;;2.90;;
2476;SDS011;1249;51.270;6.756;2023-07-08T01:22:41;5.20;;;3.27;;
2476;SDS011;1249;51.270;6.756;2023-07-08T01:25:07;5.07;;;3.67;;
2476;SDS011;1249;51.270;6.756;2023-07-08T01:27:37;4.90;;;2.93;;
2476;SDS011;1249;51.270;6.756;2023-07-08T01:30:06;5.37;;;3.47;;
2476;SDS011;1249;51.270;6.756;2023-07-08T01:32:33;4.07;;;3.70;;
2476;SDS011;1249;51.270;6.756;2023-07-08T01:35:01;8.37;;;3.87;;
2476;SDS011;1249;51.270;6.756;2023-07-08T01:37:28;8.90;;;4.30;;
2476;SDS011;1249;51.270;6.756;2023-07-08T01:42:46;3.57;;;3.27;;
2476;SDS011;1249;51.270;6.756;2023-07-08T01:45:13;3.77;;;2.90;;
2476;SDS011;1249;51.270;6.756;2023-07-08T01:47:44;7.53;;;4.40;;
2476;SDS011;1249;51.270;6.756;2023-07-08T01:50:15;5.20;;;3.50;;
2476;SDS011;1249;51.270;6.756;2023-07-08T01:52:40;5.33;;;2.90;;
2476;SDS011;1249;51.270;6.756;2023-07-08T01:55:07;3.07;;;2.70;;
2476;SDS011;1249;51.270;6.756;2023-07-08T01:57:32;3.27;;;3.00;;
2476;SDS011;1249;51.270;6.756;2023-07-08T01:59:58;4.87;;;3.13;;
2476;SDS011;1249;51.270;6.756;2023-07-08T02:02:24;3.63;;;3.33;;
2476;SDS011;1249;51.270;6.756;2023-07-08T02:04:50;6.50;;;2.93;;
2476;SDS011;1249;51.270;6.756;2023-07-08T02:07:15;4.30;;;3.23;;
2476;SDS011;1249;51.270;6.756;2023-07-08T02:09:41;4.40;;;3.17;;
2476;SDS011;1249;51.270;6.756;2023-07-08T02:12:07;2.93;;;2.73;;
2476;SDS011;1249;51.270;6.756;2023-07-08T02:14:33;3.37;;;3.07;;
2476;SDS011;1249;51.270;6.756;2023-07-08T02:16:58;5.40;;;3.57;;
2476;SDS011;1249;51.270;6.756;2023-07-08T02:19:24;3.83;;;3.20;;
2476;SDS011;1249;51.270;6.756;2023-07-08T02:21:49;5.17;;;2.97;;
2476;SDS011;1249;51.270;6.756;2023-07-08T02:24:16;4.77;;;3.60;;
2476;SDS011;1249;51.270;6.756;2023-07-08T02:26:42;3.60;;;3.27;;
2476;SDS011;1249;51.270;6.756;2023-07-08T02:29:08;3.47;;;3.17;;
2476;SDS011;1249;51.270;6.756;2023-07-08T02:31:33;4.20;;;3.43;;
2476;SDS011;1249;51.270;6.756;2023-07-08T02:33:59;3.60;;;3.30;;
2476;SDS011;1249;51.270;6.756;2023-07-08T02:36:27;4.37;;;3.70;;
2476;SDS011;1249;51.270;6.756;2023-07-08T02:38:52;4.00;;;3.60;;
2476;SDS011;1249;51.270;6.756;2023-07-08T02:41:18;4.63;;;3.73;;
2476;SDS011;1249;51.270;6.756;2023-07-08T02:43:43;4.43;;;3.53;;
2476;SDS011;1249;51.270;6.756;2023-07-08T02:46:09;5.60;;;3.50;;
2476;SDS011;1249;51.270;6.756;2023-07-08T02:48:34;4.40;;;3.77;;
2476;SDS011;1249;51.270;6.756;2023-07-08T02:51:04;3.80;;;3.30;;
2476;SDS011;1249;51.270;6.756;2023-07-08T02:53:30;4.03;;;2.87;;
2476;SDS011;1249;51.270;6.756;2023-07-08T02:55:56;4.93;;;3.80;;
2476;SDS011;1249;51.270;6.756;2023-07-08T02:58:22;6.23;;;3.73;;
2476;SDS011;1249;51.270;6.756;2023-07-08T03:00:54;4.20;;;3.20;;
2476;SDS011;1249;51.270;6.756;2023-07-08T03:03:21;3.80;;;3.33;;
2476;SDS011;1249;51.270;6.756;2023-07-08T03:05:57;7.60;;;3.63;;
2476;SDS011;1249;51.270;6.756;2023-07-08T03:08:25;6.60;;;3.40;;
2476;SDS011;1249;51.270;6.756;2023-07-08T03:10:55;6.40;;;3.37;;
2476;SDS011;1249;51.270;6.756;2023-07-08T03:13:23;3.60;;;3.30;;
2476;SDS011;1249;51.270;6.756;2023-07-08T03:15:49;4.70;;;3.33;;
2476;SDS011;1249;51.270;6.756;2023-07-08T03:18:15;4.40;;;3.50;;
2476;SDS011;1249;51.270;6.756;2023-07-08T03:20:40;4.20;;;3.43;;
2476;SDS011;1249;51.270;6.756;2023-07-08T03:23:06;3.00;;;2.80;;
2476;SDS011;1249;51.270;6.756;2023-07-08T03:25:31;3.93;;;3.40;;
2476;SDS011;1249;51.270;6.756;2023-07-08T03:27:57;3.30;;;3.00;;
2476;SDS011;1249;51.270;6.756;2023-07-08T03:30:23;6.13;;;4.30;;
2476;SDS011;1249;51.270;6.756;2023-07-08T03:32:48;3.40;;;3.10;;
2476;SDS011;1249;51.270;6.756;2023-07-08T03:35:14;4.23;;;3.83;;
2476;SDS011;1249;51.270;6.756;2023-07-08T03:37:40;4.67;;;3.30;;
2476;SDS011;1249;51.270;6.756;2023-07-08T03:40:07;4.17;;;3.30;;
2476;SDS011;1249;51.270;6.756;2023-07-08T03:42:34;3.53;;;3.33;;
2476;SDS011;1249;51.270;6.756;2023-07-08T03:45:00;3.63;;;3.17;;
2476;SDS011;1249;51.270;6.756;2023-07-08T03:47:25;5.40;;;3.30;;
2476;SDS011;1249;51.270;6.756;2023-07-08T03:49:51;5.60;;;4.13;;
2476;SDS011;1249;51.270;6.756;2023-07-08T03:52:16;4.43;;;3.40;;
2476;SDS011;1249;51.270;6.756;2023-07-08T03:54:42;4.60;;;3.80;;
2476;SDS011;1249;51.270;6.756;2023-07-08T03:57:09;4.53;;;3.57;;
2476;SDS011;1249;51.270;6.756;2023-07-08T03:59:34;3.70;;;3.17;;
2476;SDS011;1249;51.270;6.756;2023-07-08T04:02:00;4.70;;;3.40;;
2476;SDS011;1249;51.270;6.756;2023-07-08T04:04:25;3.57;;;3.23;;
2476;SDS011;1249;51.270;6.756;2023-07-08T04:06:51;7.37;;;4.50;;
2476;SDS011;1249;51.270;6.756;2023-07-08T04:09:16;5.13;;;3.57;;
2476;SDS011;1249;51.270;6.756;2023-07-08T04:11:42;5.30;;;3.70;;
2476;SDS011;1249;51.270;6.756;2023-07-08T04:14:08;3.73;;;3.43;;
2476;SDS011;1249;51.270;6.756;2023-07-08T04:19:12;4.03;;;3.73;;
2476;SDS011;1249;51.270;6.756;2023-07-08T04:21:42;4.00;;;3.70;;
2476;SDS011;1249;51.270;6.756;2023-07-08T04:24:09;4.37;;;3.20;;
2476;SDS011;1249;51.270;6.756;2023-07-08T04:26:36;4.30;;;3.90;;
2476;SDS011;1249;51.270;6.756;2023-07-08T04:29:04;4.90;;;3.03;;
2476;SDS011;1249;51.270;6.756;2023-07-08T04:31:39;4.57;;;4.00;;
2476;SDS011;1249;51.270;6.756;2023-07-08T04:34:06;4.37;;;3.97;;
2476;SDS011;1249;51.270;6.756;2023-07-08T04:36:32;4.90;;;4.40;;
2476;SDS011;1249;51.270;6.756;2023-07-08T04:38:58;4.00;;;3.60;;
2476;SDS011;1249;51.270;6.756;2023-07-08T04:41:25;4.00;;;3.60;;
2476;SDS011;1249;51.270;6.756;2023-07-08T04:43:51;4.07;;;3.70;;
2476;SDS011;1249;51.270;6.756;2023-07-08T04:46:31;5.13;;;4.03;;
2476;SDS011;1249;51.270;6.756;2023-07-08T04:49:02;3.93;;;3.40;;
2476;SDS011;1249;51.270;6.756;2023-07-08T04:51:29;5.00;;;3.60;;
2476;SDS011;1249;51.270;6.756;2023-07-08T04:53:54;4.17;;;3.70;;
2476;SDS011;1249;51.270;6.756;2023-07-08T04:56:20;4.00;;;3.60;;
2476;SDS011;1249;51.270;6.756;2023-07-08T04:58:47;4.93;;;3.60;;
2476;SDS011;1249;51.270;6.756;2023-07-08T05:01:12;4.17;;;3.87;;
2476;SDS011;1249;51.270;6.756;2023-07-08T05:03:38;5.07;;;4.57;;
2476;SDS011;1249;51.270;6.756;2023-07-08T05:06:03;4.83;;;3.80;;
2476;SDS011;1249;51.270;6.756;2023-07-08T05:08:29;4.90;;;3.97;;
2476;SDS011;1249;51.270;6.756;2023-07-08T05:10:55;6.53;;;4.23;;
2476;SDS011;1249;51.270;6.756;2023-07-08T05:13:21;6.53;;;4.30;;
2476;SDS011;1249;51.270;6.756;2023-07-08T05:15:47;4.70;;;4.30;;
2476;SDS011;1249;51.270;6.756;2023-07-08T05:18:13;7.53;;;4.37;;
2476;SDS011;1249;51.270;6.756;2023-07-08T05:20:39;4.50;;;4.10;;
2476;SDS011;1249;51.270;6.756;2023-07-08T05:23:05;5.43;;;4.00;;
2476;SDS011;1249;51.270;6.756;2023-07-08T05:25:33;5.20;;;4.70;;
2476;SDS011;1249;51.270;6.756;2023-07-08T05:28:00;4.17;;;3.80;;
2476;SDS011;1249;51.270;6.756;2023-07-08T05:30:25;4.90;;;3.90;;
2476;SDS011;1249;51.270;6.756;2023-07-08T05:32:51;4.87;;;3.87;;
2476;SDS011;1249;51.270;6.756;2023-07-08T05:35:18;6.10;;;4.23;;
2476;SDS011;1249;51.270;6.756;2023-07-08T05:37:43;5.43;;;4.43;;
2476;SDS011;1249;51.270;6.756;2023-07-08T05:40:12;6.50;;;4.50;;
2476;SDS011;1249;51.270;6.756;2023-07-08T05:42:37;4.83;;;3.93;;
2476;SDS011;1249;51.270;6.756;2023-07-08T05:45:04;3.73;;;3.27;;
2476;SDS011;1249;51.270;6.756;2023-07-08T05:47:31;4.77;;;4.37;;
2476;SDS011;1249;51.270;6.756;2023-07-08T05:49:57;5.47;;;5.07;;
2476;SDS011;1249;51.270;6.756;2023-07-08T05:52:22;7.17;;;4.40;;
2476;SDS011;1249;51.270;6.756;2023-07-08T05:54:48;5.10;;;4.53;;
2476;SDS011;1249;51.270;6.756;2023-07-08T05:57:13;5.60;;;4.33;;
2476;SDS011;1249;51.270;6.756;2023-07-08T05:59:39;4.83;;;3.50;;
2476;SDS011;1249;51.270;6.756;2023-07-08T06:02:05;4.43;;;3.90;;
2476;SDS011;1249;51.270;6.756;2023-07-08T06:04:32;4.37;;;3.97;;
2476;SDS011;1249;51.270;6.756;2023-07-08T06:06:58;4.63;;;3.77;;
2476;SDS011;1249;51.270;6.756;2023-07-08T06:09:23;6.20;;;4.80;;
2476;SDS011;1249;51.270;6.756;2023-07-08T06:11:49;4.70;;;4.30;;
2476;SDS011;1249;51.270;6.756;2023-07-08T06:14:15;4.37;;;3.97;;
2476;SDS011;1249;51.270;6.756;2023-07-08T06:16:40;7.83;;;4.50;;
2476;SDS011;1249;51.270;6.756;2023-07-08T06:19:06;5.33;;;4.80;;
2476;SDS011;1249;51.270;6.756;2023-07-08T06:21:32;5.30;;;4.43;;
2476;SDS011;1249;51.270;6.756;2023-07-08T06:23:57;5.07;;;4.57;;
2476;SDS011;1249;51.270;6.756;2023-07-08T06:26:23;5.40;;;4.90;;
2476;SDS011;1249;51.270;6.756;2023-07-08T06:28:48;8.27;;;4.77;;
2476;SDS011;1249;51.270;6.756;2023-07-08T06:31:14;5.00;;;4.27;;
2476;SDS011;1249;51.270;6.756;2023-07-08T06:33:40;9.07;;;4.67;;
2476;SDS011;1249;51.270;6.756;2023-07-08T06:36:05;7.47;;;5.30;;
2476;SDS011;1249;51.270;6.756;2023-07-08T06:38:32;4.97;;;4.57;;
2476;SDS011;1249;51.270;6.756;2023-07-08T06:40:58;6.73;;;4.97;;
2476;SDS011;1249;51.270;6.756;2023-07-08T06:43:23;6.03;;;5.47;;
2476;SDS011;1249;51.270;6.756;2023-07-08T06:45:49;5.13;;;4.57;;
2476;SDS011;1249;51.270;6.756;2023-07-08T06:48:14;5.40;;;4.90;;
2476;SDS011;1249;51.270;6.756;2023-07-08T06:50:46;7.20;;;6.10;;
2476;SDS011;1249;51.270;6.756;2023-07-08T06:53:12;5.60;;;5.10;;
2476;SDS011;1249;51.270;6.756;2023-07-08T06:55:39;14.57;;;6.43;;
2476;SDS011;1249;51.270;6.756;2023-07-08T06:58:04;5.40;;;4.83;;
2476;SDS011;1249;51.270;6.756;2023-07-08T07:00:30;5.87;;;5.10;;
2476;SDS011;1249;51.270;6.756;2023-07-08T07:02:55;8.03;;;6.03;;
2476;SDS011;1249;51.270;6.756;2023-07-08T07:05:21;5.67;;;4.83;;
2476;SDS011;1249;51.270;6.756;2023-07-08T07:07:47;5.80;;;5.20;;
2476;SDS011;1249;51.270;6.756;2023-07-08T07:10:12;6.70;;;6.10;;
2476;SDS011;1249;51.270;6.756;2023-07-08T07:12:38;7.13;;;5.13;;
2476;SDS011;1249;51.270;6.756;2023-07-08T07:15:04;6.53;;;5.57;;
2476;SDS011;1249;51.270;6.756;2023-07-08T07:17:30;6.40;;;4.87;;
2476;SDS011;1249;51.270;6.756;2023-07-08T07:19:56;6.23;;;5.63;;
2476;SDS011;1249;51.270;6.756;2023-07-08T07:22:21;5.33;;;4.83;;
2476;SDS011;1249;51.270;6.756;2023-07-08T07:24:47;10.80;;;5.80;;
2476;SDS011;1249;51.270;6.756;2023-07-08T07:27:13;6.63;;;5.23;;
2476;SDS011;1249;51.270;6.756;2023-07-08T07:29:43;6.37;;;5.77;;
2476;SDS011;1249;51.270;6.756;2023-07-08T07:32:10;5.50;;;5.00;;
2476;SDS011;1249;51.270;6.756;2023-07-08T07:34:37;6.20;;;5.60;;
2476;SDS011;1249;51.270;6.756;2023-07-08T07:37:03;5.67;;;5.03;;
2476;SDS011;1249;51.270;6.756;2023-07-08T07:39:29;6.07;;;5.57;;
2476;SDS011;1249;51.270;6.756;2023-07-08T07:41:55;6.33;;;5.60;;
2476;SDS011;1249;51.270;6.756;2023-07-08T07:44:21;6.03;;;5.43;;
2476;SDS011;1249;51.270;6.756;2023-07-08T07:46:46;7.40;;;5.30;;
2476;SDS011;1249;51.270;6.756;2023-07-08T07:49:12;6.07;;;5.23;;
2476;SDS011;1249;51.270;6.756;2023-07-08T07:51:38;8.80;;;6.40;;
2476;SDS011;1249;51.270;6.756;2023-07-08T07:54:03;6.53;;;5.50;;
2476;SDS011;1249;51.270;6.756;2023-07-08T07:56:29;7.27;;;5.50;;
2476;SDS011;1249;51.270;6.756;2023-07-08T07:58:54;7.80;;;5.67;;
2476;SDS011;1249;51.270;6.756;2023-07-08T08:01:20;5.90;;;5.40;;
2476;SDS011;1249;51.270;6.756;2023-07-08T08:03:46;6.80;;;6.13;;
2476;SDS011;1249;51.270;6.756;2023-07-08T08:06:15;6.43;;;5.70;;
2476;SDS011;1249;51.270;6.756;2023-07-08T08:08:42;7.47;;;5.00;;
2476;SDS011;1249;51.270;6.756;2023-07-08T08:11:08;6.10;;;5.60;;
2476;SDS011;1249;51.270;6.756;2023-07-08T08:13:34;6.83;;;6.13;;
2476;SDS011;1249;51.270;6.756;2023-07-08T08:15:59;6.93;;;6.23;;
2476;SDS011;1249;51.270;6.756;2023-07-08T08:18:25;8.90;;;6.17;;
2476;SDS011;1249;51.270;6.756;2023-07-08T08:20:51;8.20;;;6.03;;
2476;SDS011;1249;51.270;6.756;2023-07-08T08:23:16;7.80;;;6.07;;
2476;SDS011;1249;51.270;6.756;2023-07-08T08:25:42;9.33;;;6.00;;
2476;SDS011;1249;51.270;6.756;2023-07-08T08:28:08;7.87;;;5.73;;
2476;SDS011;1249;51.270;6.756;2023-07-08T08:30:33;7.10;;;6.30;;
2476;SDS011;1249;51.270;6.756;2023-07-08T08:32:59;8.87;;;5.73;;
2476;SDS011;1249;51.270;6.756;2023-07-08T08:35:25;7.03;;;6.17;;
2476;SDS011;1249;51.270;6.756;2023-07-08T08:37:51;6.07;;;5.57;;
2476;SDS011;1249;51.270;6.756;2023-07-08T08:40:18;8.33;;;5.60;;
2476;SDS011;1249;51.270;6.756;2023-07-08T08:43:08;6.53;;;5.93;;
2476;SDS011;1249;51.270;6.756;2023-07-08T08:45:55;6.53;;;5.10;;
2476;SDS011;1249;51.270;6.756;2023-07-08T08:48:24;6.40;;;5.77;;
2476;SDS011;1249;51.270;6.756;2023-07-08T08:51:12;6.20;;;5.40;;
2476;SDS011;1249;51.270;6.756;2023-07-08T08:53:40;6.60;;;5.93;;
2476;SDS011;1249;51.270;6.756;2023-07-08T08:56:10;6.70;;;6.10;;
2476;SDS011;1249;51.270;6.756;2023-07-08T08:58:44;7.57;;;5.70;;
2476;SDS011;1249;51.270;6.756;2023-07-08T09:01:16;5.43;;;4.93;;
2476;SDS011;1249;51.270;6.756;2023-07-08T09:03:55;5.37;;;4.83;;
2476;SDS011;1249;51.270;6.756;2023-07-08T09:06:26;6.30;;;5.70;;
2476;SDS011;1249;51.270;6.756;2023-07-08T09:08:54;6.77;;;6.17;;
2476;SDS011;1249;51.270;6.756;2023-07-08T09:14:00;5.70;;;5.07;;
2476;SDS011;1249;51.270;6.756;2023-07-08T09:16:28;5.83;;;5.30;;
2476;SDS011;1249;51.270;6.756;2023-07-08T09:18:59;6.90;;;6.20;;
2476;SDS011;1249;51.270;6.756;2023-07-08T09:21:37;5.97;;;5.07;;
2476;SDS011;1249;51.270;6.756;2023-07-08T09:24:31;6.17;;;4.97;;
2476;SDS011;1249;51.270;6.756;2023-07-08T09:26:58;8.27;;;5.20;;
2476;SDS011;1249;51.270;6.756;2023-07-08T09:29:26;6.70;;;5.53;;
2476;SDS011;1249;51.270;6.756;2023-07-08T09:31:51;6.70;;;5.13;;
2476;SDS011;1249;51.270;6.756;2023-07-08T09:34:19;8.03;;;5.40;;
2476;SDS011;1249;51.270;6.756;2023-07-08T09:36:48;11.23;;;6.10;;
2476;SDS011;1249;51.270;6.756;2023-07-08T09:39:16;5.77;;;5.27;;
2476;SDS011;1249;51.270;6.756;2023-07-08T09:41:43;5.30;;;4.83;;
2476;SDS011;1249;51.270;6.756;2023-07-08T09:44:13;7.40;;;5.30;;
2476;SDS011;1249;51.270;6.756;2023-07-08T09:46:42;5.97;;;4.57;;
2476;SDS011;1249;51.270;6.756;2023-07-08T09:49:19;5.57;;;5.00;;
2476;SDS011;1249;51.270;6.756;2023-07-08T09:51:51;8.13;;;5.40;;
2476;SDS011;1249;51.270;6.756;2023-07-08T09:54:20;5.10;;;4.70;;
2476;SDS011;1249;51.270;6.756;2023-07-08T09:56:54;6.00;;;4.93;;
2476;SDS011;1249;51.270;6.756;2023-07-08T09:59:30;4.80;;;4.40;;
2476;SDS011;1249;51.270;6.756;2023-07-08T10:02:03;5.70;;;4.87;;
2476;SDS011;1249;51.270;6.756;2023-07-08T10:05:00;5.43;;;4.70;;
2476;SDS011;1249;51.270;6.756;2023-07-08T10:07:30;6.50;;;5.80;;
2476;SDS011;1249;51.270;6.756;2023-07-08T10:09:57;5.93;;;5.03;;
2476;SDS011;1249;51.270;6.756;2023-07-08T10:12:26;6.50;;;5.00;;
2476;SDS011;1249;51.270;6.756;2023-07-08T10:14:55;7.80;;;4.53;;
2476;SDS011;1249;51.270;6.756;2023-07-08T10:17:24;4.60;;;4.20;;
2476;SDS011;1249;51.270;6.756;2023-07-08T10:19:50;6.07;;;5.17;;
2476;SDS011;1249;51.270;6.756;2023-07-08T10:25:20;5.80;;;4.60;;
2476;SDS011;1249;51.270;6.756;2023-07-08T10:34:00;5.53;;;4.93;;
2476;SDS011;1249;51.270;6.756;2023-07-08T10:42:54;6.20;;;4.70;;
2476;SDS011;1249;51.270;6.756;2023-07-08T10:45:12;6.67;;;4.43;;
2476;SDS011;1249;51.270;6.756;2023-07-08T10:47:46;5.43;;;5.03;;
2476;SDS011;1249;51.270;6.756;2023-07-08T10:53:51;5.23;;;4.73;;
2476;SDS011;1249;51.270;6.756;2023-07-08T10:56:54;5.20;;;4.70;;
2476;SDS011;1249;51.270;6.756;2023-07-08T11:02:38;5.50;;;4.57;;
2476;SDS011;1249;51.270;6.756;2023-07-08T11:08:38;4.93;;;4.53;;
2476;SDS011;1249;51.270;6.756;2023-07-08T11:11:09;5.03;;;4.57;;
2476;SDS011;1249;51.270;6.756;2023-07-08T11:13:48;4.30;;;3.97;;
2476;SDS011;1249;51.270;6.756;2023-07-08T11:18:52;4.53;;;3.70;;
2476;SDS011;1249;51.270;6.756;2023-07-08T11:21:39;5.90;;;5.40;;
2476;SDS011;1249;51.270;6.756;2023-07-08T11:24:13;6.53;;;4.50;;
2476;SDS011;1249;51.270;6.756;2023-07-08T11:26:54;4.63;;;4.23;;
2476;SDS011;1249;51.270;6.756;2023-07-08T11:29:37;6.17;;;5.20;;
2476;SDS011;1249;51.270;6.756;2023-07-08T11:32:06;4.13;;;3.73;;
2476;SDS011;1249;51.270;6.756;2023-07-08T11:34:37;4.20;;;3.77;;
2476;SDS011;1249;51.270;6.756;2023-07-08T11:37:04;4.70;;;4.30;;
2476;SDS011;1249;51.270;6.756;2023-07-08T11:39:44;4.60;;;4.20;;
2476;SDS011;1249;51.270;6.756;2023-07-08T11:44:41;4.53;;;4.10;;
2476;SDS011;1249;51.270;6.756;2023-07-08T11:47:16;5.00;;;4.43;;
2476;SDS011;1249;51.270;6.756;2023-07-08T11:49:46;7.20;;;4.90;;
2476;SDS011;1249;51.270;6.756;2023-07-08T11:52:14;6.47;;;4.70;;
2476;SDS011;1249;51.270;6.756;2023-07-08T11:54:45;4.60;;;3.83;;
2476;SDS011;1249;51.270;6.756;2023-07-08T11:57:16;4.77;;;4.40;;
2476;SDS011;1249;51.270;6.756;2023-07-08T11:59:44;4.53;;;4.03;;
2476;SDS011;1249;51.270;6.756;2023-07-08T12:02:12;4.30;;;3.90;;
2476;SDS011;1249;51.270;6.756;2023-07-08T12:07:45;5.70;;;4.33;;
2476;SDS011;1249;51.270;6.756;2023-07-08T12:10:17;5.90;;;4.83;;
2476;SDS011;1249;51.270;6.756;2023-07-08T12:12:49;4.60;;;4.20;;
2476;SDS011;1249;51.270;6.756;2023-07-08T12:18:02;4.63;;;4.13;;
2476;SDS011;1249;51.270;6.756;2023-07-08T12:20:39;7.67;;;4.60;;
2476;SDS011;1249;51.270;6.756;2023-07-08T12:23:21;5.87;;;4.60;;
2476;SDS011;1249;51.270;6.756;2023-07-08T12:25:48;4.30;;;3.90;;
2476;SDS011;1249;51.270;6.756;2023-07-08T12:28:14;5.10;;;4.70;;
2476;SDS011;1249;51.270;6.756;2023-07-08T12:30:41;5.00;;;4.50;;
2476;SDS011;1249;51.270;6.756;2023-07-08T12:33:18;4.83;;;4.07;;
2476;SDS011;1249;51.270;6.756;2023-07-08T12:35:51;5.07;;;4.57;;
2476;SDS011;1249;51.270;6.756;2023-07-08T12:40:58;4.60;;;4.20;;
2476;SDS011;1249;51.270;6.756;2023-07-08T12:43:26;3.83;;;3.53;;
2476;SDS011;1249;51.270;6.756;2023-07-08T12:45:51;7.17;;;4.97;;
2476;SDS011;1249;51.270;6.756;2023-07-08T12:48:17;4.70;;;4.27;;
2476;SDS011;1249;51.270;6.756;2023-07-08T12:50:43;4.40;;;4.00;;
2476;SDS011;1249;51.270;6.756;2023-07-08T12:53:10;4.60;;;4.20;;
2476;SDS011;1249;51.270;6.756;2023-07-08T12:55:37;6.37;;;5.53;;
2476;SDS011;1249;51.270;6.756;2023-07-08T12:58:05;5.30;;;3.90;;
2476;SDS011;1249;51.270;6.756;2023-07-08T13:00:38;4.83;;;4.33;;
2476;SDS011;1249;51.270;6.756;2023-07-08T13:03:07;4.70;;;4.20;;
2476;SDS011;1249;51.270;6.756;2023-07-08T13:05:38;4.30;;;3.90;;
2476;SDS011;1249;51.270;6.756;2023-07-08T13:08:05;4.60;;;4.07;;
2476;SDS011;1249;51.270;6.756;2023-07-08T13:10:32;4.80;;;4.00;;
2476;SDS011;1249;51.270;6.756;2023-07-08T13:13:00;5.23;;;4.13;;
2476;SDS011;1249;51.270;6.756;2023-07-08T13:15:33;5.10;;;4.60;;
2476;SDS011;1249;51.270;6.756;2023-07-08T13:18:04;5.43;;;4.97;;
2476;SDS011;1249;51.270;6.756;2023-07-08T13:20:34;4.70;;;4.30;;
2476;SDS011;1249;51.270;6.756;2023-07-08T13:23:01;5.20;;;4.13;;
2476;SDS011;1249;51.270;6.756;2023-07-08T13:25:31;4.37;;;4.03;;
2476;SDS011;1249;51.270;6.756;2023-07-08T13:27:59;5.67;;;4.30;;
2476;SDS011;1249;51.270;6.756;2023-07-08T13:30:27;4.97;;;3.93;;
2476;SDS011;1249;51.270;6.756;2023-07-08T13:32:54;4.13;;;3.50;;
2476;SDS011;1249;51.270;6.756;2023-07-08T13:35:35;4.10;;;3.60;;
2476;SDS011;1249;51.270;6.756;2023-07-08T13:38:02;6.23;;;4.10;;
2476;SDS011;1249;51.270;6.756;2023-07-08T13:40:29;4.20;;;3.70;;
2476;SDS011;1249;51.270;6.756;2023-07-08T13:42:56;5.50;;;4.03;;
2476;SDS011;1249;51.270;6.756;2023-07-08T13:45:26;4.17;;;3.60;;
2476;SDS011;1249;51.270;6.756;2023-07-08T13:50:35;5.13;;;3.90;;
2476;SDS011;1249;51.270;6.756;2023-07-08T13:53:21;6.97;;;4.00;;
2476;SDS011;1249;51.270;6.756;2023-07-08T13:55:58;4.77;;;3.87;;
2476;SDS011;1249;51.270;6.756;2023-07-08T13:58:26;5.20;;;3.93;;
2476;SDS011;1249;51.270;6.756;2023-07-08T14:00:54;6.27;;;4.17;;
2476;SDS011;1249;51.270;6.756;2023-07-08T14:03:21;4.70;;;4.30;;
2476;SDS011;1249;51.270;6.756;2023-07-08T14:05:47;5.13;;;4.23;;
2476;SDS011;1249;51.270;6.756;2023-07-08T14:08:13;7.20;;;4.77;;
2476;SDS011;1249;51.270;6.756;2023-07-08T14:10:42;5.30;;;4.83;;
2476;SDS011;1249;51.270;6.756;2023-07-08T14:13:10;4.47;;;4.10;;
2476;SDS011;1249;51.270;6.756;2023-07-08T14:15:37;4.80;;;4.40;;
2476;SDS011;1249;51.270;6.756;2023-07-08T14:18:04;4.87;;;4.57;;
2476;SDS011;1249;51.270;6.756;2023-07-08T14:20:30;6.07;;;4.40;;
2476;SDS011;1249;51.270;6.756;2023-07-08T14:22:56;6.03;;;4.33;;
2476;SDS011;1249;51.270;6.756;2023-07-08T14:25:21;7.00;;;4.23;;
2476;SDS011;1249;51.270;6.756;2023-07-08T14:27:48;5.57;;;4.47;;
2476;SDS011;1249;51.270;6.756;2023-07-08T14:30:15;11.27;;;4.23;;
2476;SDS011;1249;51.270;6.756;2023-07-08T14:32:40;4.80;;;4.40;;
2476;SDS011;1249;51.270;6.756;2023-07-08T14:35:21;4.43;;;4.03;;
2476;SDS011;1249;51.270;6.756;2023-07-08T14:37:50;4.57;;;4.13;;
2476;SDS011;1249;51.270;6.756;2023-07-08T14:40:23;4.07;;;3.77;;
2476;SDS011;1249;51.270;6.756;2023-07-08T14:43:01;5.13;;;4.73;;
2476;SDS011;1249;51.270;6.756;2023-07-08T14:45:40;4.23;;;3.90;;
2476;SDS011;1249;51.270;6.756;2023-07-08T14:48:10;5.30;;;4.80;;
2476;SDS011;1249;51.270;6.756;2023-07-08T14:50:37;4.43;;;4.07;;
2476;SDS011;1249;51.270;6.756;2023-07-08T14:53:02;4.90;;;4.40;;
2476;SDS011;1249;51.270;6.756;2023-07-08T14:55:28;4.63;;;4.23;;
2476;SDS011;1249;51.270;6.756;2023-07-08T14:57:54;7.07;;;4.90;;
2476;SDS011;1249;51.270;6.756;2023-07-08T15:00:21;8.47;;;5.03;;
2476;SDS011;1249;51.270;6.756;2023-07-08T15:02:47;4.53;;;4.13;;
2476;SDS011;1249;51.270;6.756;2023-07-08T15:05:17;8.17;;;5.10;;
2476;SDS011;1249;51.270;6.756;2023-07-08T15:07:48;5.13;;;4.53;;
2476;SDS011;1249;51.270;6.756;2023-07-08T15:10:18;5.00;;;4.00;;
2476;SDS011;1249;51.270;6.756;2023-07-08T15:12:46;4.30;;;3.90;;
2476;SDS011;1249;51.270;6.756;2023-07-08T15:15:14;5.57;;;5.03;;
2476;SDS011;1249;51.270;6.756;2023-07-08T15:17:47;5.47;;;4.53;;
2476;SDS011;1249;51.270;6.756;2023-07-08T15:20:14;6.10;;;4.80;;
2476;SDS011;1249;51.270;6.756;2023-07-08T15:22:43;7.83;;;4.33;;
2476;SDS011;1249;51.270;6.756;2023-07-08T15:25:10;11.27;;;5.10;;
2476;SDS011;1249;51.270;6.756;2023-07-08T15:27:37;5.53;;;4.93;;
2476;SDS011;1249;51.270;6.756;2023-07-08T15:30:04;5.10;;;4.17;;
2476;SDS011;1249;51.270;6.756;2023-07-08T15:32:46;5.27;;;4.40;;
2476;SDS011;1249;51.270;6.756;2023-07-08T15:35:13;5.33;;;4.37;;
2476;SDS011;1249;51.270;6.756;2023-07-08T15:37:41;7.07;;;4.83;;
2476;SDS011;1249;51.270;6.756;2023-07-08T15:40:07;5.60;;;5.10;;
2476;SDS011;1249;51.270;6.756;2023-07-08T15:42:34;7.60;;;4.67;;
2476;SDS011;1249;51.270;6.756;2023-07-08T15:45:01;5.83;;;4.60;;
2476;SDS011;1249;51.270;6.756;2023-07-08T15:47:47;5.43;;;4.50;;
2476;SDS011;1249;51.270;6.756;2023-07-08T15:50:14;8.83;;;5.07;;
2476;SDS011;1249;51.270;6.756;2023-07-08T15:52:41;9.20;;;5.10;;
2476;SDS011;1249;51.270;6.756;2023-07-08T15:55:07;6.37;;;4.60;;
2476;SDS011;1249;51.270;6.756;2023-07-08T15:57:36;9.83;;;5.20;;
2476;SDS011;1249;51.270;6.756;2023-07-08T16:00:09;8.43;;;4.60;;
2476;SDS011;1249;51.270;6.756;2023-07-08T16:02:45;5.37;;;4.87;;
2476;SDS011;1249;51.270;6.756;2023-07-08T16:05:14;6.17;;;4.43;;
2476;SDS011;1249;51.270;6.756;2023-07-08T16:07:40;5.33;;;4.60;;
2476;SDS011;1249;51.270;6.756;2023-07-08T16:10:06;5.77;;;4.87;;
2476;SDS011;1249;51.270;6.756;2023-07-08T16:12:33;5.50;;;5.00;;
2476;SDS011;1249;51.270;6.756;2023-07-08T16:14:59;5.50;;;5.00;;